Time;durP1;ratioP1;P1;durP2;ratioP2;P2;SDS_P1;SDS_P2;PMS_P1;PMS_P2;Temp;Humidity;BMP_temperature;BMP_pressure;BME280_temperature;BME280_humidity;BME280_pressure;Samples;Min_cycle;Max_cycle;Signal;HPM_P1;HPM_P2
2022/11/02 00:01:05;;;;;;;14.52;7.40;;;13.60;99.90;;;;;;5051866;28;20044;-66
2022/11/02 00:04:09;;;;;;;17.58;9.10;;;13.60;99.90;;;;;;5051681;28;20036;-66
2022/11/02 00:07:13;;;;;;;13.38;8.23;;;13.70;99.90;;;;;;5051930;28;20044;-66
2022/11/02 00:10:17;;;;;;;18.75;10.45;;;13.70;99.90;;;;;;5050787;28;20052;-66
2022/11/02 00:13:22;;;;;;;21.08;11.10;;;13.80;99.90;;;;;;5051475;28;20044;-66
2022/11/02 00:16:26;;;;;;;23.48;11.18;;;13.90;99.90;;;;;;5051701;28;20052;-66
2022/11/02 00:19:30;;;;;;;19.45;11.57;;;13.90;99.90;;;;;;5051449;28;20044;-66
2022/11/02 00:22:34;;;;;;;15.98;10.23;;;14.00;99.90;;;;;;5051163;28;20056;-66
2022/11/02 00:25:40;;;;;;;19.83;10.73;;;14.00;99.90;;;;;;5051853;28;20048;-66
2022/11/02 00:28:44;;;;;;;19.45;11.02;;;13.90;99.90;;;;;;5051563;28;20047;-67
2022/11/02 00:31:49;;;;;;;19.42;11.40;;;13.90;99.90;;;;;;5051708;28;20051;-66
2022/11/02 00:34:53;;;;;;;25.63;11.38;;;13.90;99.90;;;;;;5051058;28;20056;-66
2022/11/02 00:37:57;;;;;;;20.17;10.93;;;13.90;99.90;;;;;;5051403;28;20052;-66
2022/11/02 00:41:01;;;;;;;19.60;11.25;;;13.80;99.90;;;;;;5051669;28;20052;-66
2022/11/02 00:44:05;;;;;;;18.48;10.68;;;13.80;99.90;;;;;;5049945;28;20041;-66
2022/11/02 00:47:10;;;;;;;18.27;10.77;;;13.70;99.90;;;;;;5039033;28;20503;-66
2022/11/02 00:50:15;;;;;;;22.33;10.95;;;13.60;99.90;;;;;;5050436;28;20400;-66
2022/11/02 00:53:19;;;;;;;16.48;9.48;;;13.50;99.90;;;;;;5055196;28;20040;-66
2022/11/02 00:56:28;;;;;;;19.70;11.00;;;13.40;99.90;;;;;;5042526;28;20056;-66
2022/11/02 00:59:33;;;;;;;18.35;9.77;;;13.20;99.90;;;;;;5055093;28;20116;-66
2022/11/02 01:02:37;;;;;;;19.60;10.35;;;13.10;99.90;;;;;;5055097;28;20048;-66
2022/11/02 01:05:42;;;;;;;22.33;11.35;;;13.10;99.90;;;;;;5054873;28;20056;-66
2022/11/02 01:08:45;;;;;;;21.25;12.40;;;13.00;99.90;;;;;;5054220;28;20055;-66
2022/11/02 01:11:50;;;;;;;23.60;14.00;;;13.00;99.90;;;;;;5042986;28;20051;-66
2022/11/02 01:14:54;;;;;;;29.85;13.95;;;12.90;99.90;;;;;;5054784;28;20068;-66
2022/11/02 01:17:57;;;;;;;24.10;13.95;;;12.90;99.90;;;;;;5042738;28;20048;-66
2022/11/02 01:21:03;;;;;;;21.35;11.32;;;12.80;99.90;;;;;;5042935;28;20047;-66
2022/11/02 01:24:07;;;;;;;19.48;12.18;;;12.80;99.90;;;;;;5041705;28;20053;-66
2022/11/02 01:27:11;;;;;;;20.40;12.05;;;14.00;99.90;;;;;;5053986;28;20503;-66
2022/11/02 01:30:16;;;;;;;25.55;13.82;;;12.70;99.90;;;;;;5054711;28;20044;-66
2022/11/02 01:33:21;;;;;;;28.67;13.27;;;12.60;99.90;;;;;;5053942;28;20036;-66
2022/11/02 01:36:24;;;;;;;21.50;12.40;;;12.60;99.90;;;;;;5053845;28;20048;-66
2022/11/02 01:39:28;;;;;;;26.13;12.40;;;12.60;99.90;;;;;;5054425;28;20048;-66
2022/11/02 01:42:33;;;;;;;20.55;11.52;;;12.60;99.90;;;;;;5054370;28;20036;-66
2022/11/02 01:45:37;;;;;;;17.52;11.02;;;12.60;99.90;;;;;;5054532;28;20044;-66
2022/11/02 01:48:46;;;;;;;24.92;12.45;;;12.50;99.90;;;;;;5042080;28;20491;-66
2022/11/02 01:52:01;;;;;;;22.27;12.45;;;12.40;99.90;;;;;;5054360;28;20028;-66
2022/11/02 01:55:20;;;;;;;22.23;11.88;;;12.50;99.90;;;;;;5054263;28;20036;-66
2022/11/02 01:58:25;;;;;;;19.58;11.05;;;12.60;99.90;;;;;;5042194;28;20339;-66
2022/11/02 02:01:30;;;;;;;17.63;10.50;;;12.70;99.90;;;;;;5053803;28;20074;-66
2022/11/02 02:04:35;;;;;;;18.42;11.30;;;12.70;99.90;;;;;;5041483;28;20391;-66
2022/11/02 02:07:40;;;;;;;20.40;12.40;;;12.70;99.90;;;;;;5054295;28;20483;-66
2022/11/02 02:10:44;;;;;;;21.23;12.32;;;12.40;99.90;;;;;;5041680;28;20048;-66
2022/11/02 02:13:48;;;;;;;24.40;13.52;;;12.30;99.90;;;;;;5041489;28;20064;-66
2022/11/02 02:17:11;;;;;;;26.73;13.23;;;12.20;99.90;;;;;;5053874;28;20055;-66
2022/11/02 02:20:42;;;;;;;23.38;12.88;;;12.20;99.90;;;;;;5052662;28;20059;-66
2022/11/02 02:24:08;;;;;;;19.45;11.82;;;12.10;99.90;;;;;;5053552;28;20526;-65
2022/11/02 02:27:53;;;;;;;25.67;11.40;;;12.00;99.90;;;;;;5053736;28;20480;-66
2022/11/02 02:31:06;;;;;;;24.38;10.40;;;11.90;99.90;;;;;;5053736;28;20059;-66
2022/11/02 02:34:16;;;;;;;18.02;9.98;;;11.90;99.90;;;;;;5041487;28;20056;-66
2022/11/02 02:37:27;;;;;;;17.55;9.23;;;11.80;99.90;;;;;;5052796;28;20384;-66
2022/11/02 02:40:42;;;;;;;20.10;9.55;;;11.80;99.90;;;;;;5053043;28;20040;-66
2022/11/02 02:43:50;;;;;;;20.77;11.27;;;11.80;99.90;;;;;;5053320;28;20052;-66
2022/11/02 02:47:09;;;;;;;17.67;9.73;;;11.80;99.90;;;;;;5040776;28;20044;-65
2022/11/02 02:50:18;;;;;;;15.27;9.80;;;11.80;99.90;;;;;;5052214;28;20520;-66
2022/11/02 02:53:36;;;;;;;18.88;8.70;;;11.70;99.90;;;;;;5052127;28;20388;-66
2022/11/02 02:56:45;;;;;;;17.92;10.85;;;11.70;99.90;;;;;;5052098;28;20079;-66
2022/11/02 02:59:49;;;;;;;20.70;10.98;;;11.70;99.90;;;;;;5052639;28;20036;-66
2022/11/02 03:03:00;;;;;;;20.15;9.43;;;11.70;99.90;;;;;;5052833;28;20048;-66
2022/11/02 03:06:17;;;;;;;16.75;10.50;;;11.70;99.90;;;;;;5040305;28;20392;-66
2022/11/02 03:09:49;;;;;;;18.67;10.93;;;11.70;99.90;;;;;;5051890;28;20040;-66
2022/11/02 03:13:41;;;;;;;22.23;11.25;;;11.60;99.90;;;;;;5040272;28;20384;-67
2022/11/02 03:17:06;;;;;;;24.50;11.43;;;11.60;99.90;;;;;;5040229;28;20044;-66
2022/11/02 03:20:41;;;;;;;23.15;11.85;;;11.60;99.90;;;;;;5052215;28;20056;-66
2022/11/02 03:23:54;;;;;;;23.52;14.95;;;11.50;99.90;;;;;;5040017;28;20040;-66
2022/11/02 03:27:20;;;;;;;30.27;14.32;;;11.60;99.90;;;;;;5051598;28;20040;-67
2022/11/02 03:30:30;;;;;;;25.23;14.05;;;11.60;99.90;;;;;;5051214;28;20048;-67
2022/11/02 03:33:41;;;;;;;23.90;14.43;;;11.60;99.90;;;;;;5039770;28;20040;-66
2022/11/02 03:36:53;;;;;;;23.00;13.30;;;11.60;99.90;;;;;;5052257;28;20495;-66
2022/11/02 03:40:05;;;;;;;;;;;11.60;99.90;;;;;;5039928;28;20040;-66
2022/11/02 03:43:11;;;;;;;23.77;14.88;;;11.60;99.90;;;;;;5051272;28;19908;-66
2022/11/02 03:46:17;;;;;;;22.60;13.43;;;11.60;99.90;;;;;;5039818;28;20047;-66
2022/11/02 03:49:23;;;;;;;26.83;15.13;;;11.50;99.90;;;;;;5051117;28;20526;-66
2022/11/02 03:52:30;;;;;;;22.65;12.80;;;11.50;99.90;;;;;;5051927;28;20052;-66
2022/11/02 03:55:41;;;;;;;21.08;10.75;;;11.50;99.90;;;;;;5038892;28;20052;-66
2022/11/02 03:58:45;;;;;;;17.92;10.13;;;11.50;99.90;;;;;;5039214;28;20052;-66
2022/11/02 04:01:51;;;;;;;17.58;8.40;;;11.30;99.90;;;;;;5039265;28;20399;-66
2022/11/02 04:04:57;;;;;;;16.25;9.13;;;11.30;99.90;;;;;;5050699;28;20040;-66
2022/11/02 04:08:21;;;;;;;16.10;9.15;;;11.40;99.90;;;;;;5039261;28;20406;-66
2022/11/02 04:14:53;;;;;;;16.48;10.50;;;11.50;99.90;;;;;;5050674;28;20396;-66
2022/11/02 04:21:20;;;;;;;21.75;12.73;;;11.60;99.90;;;;;;5051926;28;20247;-66
2022/11/02 04:27:48;;;;;;;;;;;11.60;99.90;;;;;;5052057;28;20044;-65
2022/11/02 04:30:52;;;;;;;20.10;10.27;;;11.50;99.90;;;;;;5050540;28;19908;-66
2022/11/02 04:34:00;;;;;;;26.77;12.25;;;11.40;99.90;;;;;;5050538;28;20040;-66
2022/11/02 04:38:39;;;;;;;18.83;10.73;;;11.30;99.90;;;;;;5038812;28;20044;-66
2022/11/02 04:40:29;;;;;;;19.00;10.80;;;11.20;99.90;;;;;;5038568;28;20040;-66
2022/11/02 04:43:33;;;;;;;19.95;12.02;;;11.00;99.90;;;;;;5050107;28;20048;-66
2022/11/02 04:46:38;;;;;;;19.33;10.95;;;11.00;99.90;;;;;;5050396;28;20044;-67
2022/11/02 04:49:43;;;;;;;22.55;10.77;;;10.90;99.90;;;;;;5050901;28;20052;-66
2022/11/02 04:52:59;;;;;;;19.88;12.40;;;10.80;99.90;;;;;;5038531;28;20040;-67
2022/11/02 04:56:06;;;;;;;18.80;11.57;;;10.70;99.90;;;;;;5050180;28;20044;-66
2022/11/02 04:59:10;;;;;;;16.35;8.60;;;10.80;99.90;;;;;;5038639;28;20040;-67
2022/11/02 05:02:15;;;;;;;16.30;7.90;;;10.70;99.90;;;;;;5050121;28;20052;-67
2022/11/02 05:05:20;;;;;;;14.52;7.22;;;10.70;99.90;;;;;;5050089;28;20048;-67
2022/11/02 05:08:27;;;;;;;11.68;6.68;;;10.70;99.90;;;;;;5050175;28;20044;-66
2022/11/02 05:11:31;;;;;;;18.05;6.82;;;10.80;99.90;;;;;;5038821;28;20499;-66
2022/11/02 05:14:35;;;;;;;13.13;6.47;;;10.80;99.90;;;;;;5049650;28;20064;-66
2022/11/02 05:17:40;;;;;;;9.38;5.35;;;10.80;99.90;;;;;;5049926;28;20064;-67
2022/11/02 05:20:52;;;;;;;8.02;3.97;;;10.80;99.90;;;;;;5038436;28;20048;-67
2022/11/02 05:23:58;;;;;;;5.57;3.15;;;10.80;99.90;;;;;;5038126;28;20048;-66
2022/11/02 05:27:02;;;;;;;6.38;3.22;;;10.90;99.90;;;;;;5050932;28;20040;-66
2022/11/02 05:30:09;;;;;;;6.60;3.15;;;11.00;99.90;;;;;;5050270;28;20048;-66
2022/11/02 05:33:13;;;;;;;10.85;3.83;;;11.10;99.90;;;;;;5050863;28;20043;-66
2022/11/02 05:36:17;;;;;;;12.88;5.00;;;11.10;99.90;;;;;;5049865;28;20056;-66
2022/11/02 05:39:24;;;;;;;8.77;4.80;;;11.10;99.90;;;;;;5054449;28;20124;-66
2022/11/02 05:42:28;;;;;;;17.55;6.53;;;11.00;99.90;;;;;;5054469;28;20048;-67
2022/11/02 05:45:33;;;;;;;12.45;5.90;;;11.00;99.90;;;;;;5041951;28;20036;-66
2022/11/02 05:48:37;;;;;;;11.15;6.40;;;10.90;99.90;;;;;;5054408;28;20059;-67
2022/11/02 05:51:43;;;;;;;10.50;6.18;;;10.90;99.90;;;;;;5054380;28;20056;-66
2022/11/02 05:54:47;;;;;;;13.32;6.03;;;10.90;99.90;;;;;;5054197;28;20052;-67
2022/11/02 05:57:55;;;;;;;12.82;6.00;;;10.80;99.90;;;;;;5054013;28;20064;-67
2022/11/02 06:01:00;;;;;;;16.05;5.82;;;10.90;99.90;;;;;;5041630;28;20072;-66
2022/11/02 06:04:05;;;;;;;13.13;6.45;;;10.90;99.90;;;;;;5053725;28;20040;-66
2022/11/02 06:07:09;;;;;;;22.98;6.28;;;10.90;99.90;;;;;;5053603;28;20056;-66
2022/11/02 06:10:13;;;;;;;12.10;5.97;;;11.00;99.90;;;;;;5053975;28;20048;-66
2022/11/02 06:13:17;;;;;;;12.68;6.25;;;11.00;99.90;;;;;;5053009;28;20047;-66
2022/11/02 06:16:20;;;;;;;12.45;5.85;;;11.00;99.90;;;;;;5053679;28;20051;-66
2022/11/02 06:19:25;;;;;;;12.43;6.18;;;11.10;99.90;;;;;;5053762;28;20047;-66
2022/11/02 06:22:29;;;;;;;16.48;7.38;;;11.20;99.90;;;;;;5051434;28;20048;-66
2022/11/02 06:25:33;;;;;;;15.65;8.75;;;11.30;99.90;;;;;;5040316;28;20047;-66
2022/11/02 06:28:37;;;;;;;13.13;7.40;;;11.30;99.90;;;;;;5053400;28;20052;-66
2022/11/02 06:31:41;;;;;;;19.20;6.20;;;11.80;99.90;;;;;;5052533;28;20076;-66
2022/11/02 06:34:45;;;;;;;12.55;6.20;;;13.30;99.90;;;;;;5052821;28;20048;-66
2022/11/02 06:37:49;;;;;;;16.73;6.32;;;14.70;99.90;;;;;;5040483;28;20044;-66
2022/11/02 06:40:58;;;;;;;17.33;7.15;;;16.20;99.90;;;;;;5052775;28;20047;-66
2022/11/02 06:44:02;;;;;;;26.05;7.88;;;17.70;99.90;;;;;;5052632;28;20035;-66
2022/11/02 06:47:06;;;;;;;25.40;6.40;;;19.10;99.90;;;;;;5053302;28;20048;-67
2022/11/02 06:50:10;;;;;;;24.52;6.75;;;19.70;99.90;;;;;;5052697;28;20051;-66
2022/11/02 06:53:14;;;;;;;32.85;6.57;;;20.70;99.90;;;;;;5053029;28;20063;-67
2022/11/02 06:56:18;;;;;;;20.85;6.78;;;21.70;99.90;;;;;;5053383;28;20051;-67
2022/11/02 06:59:22;;;;;;;30.98;6.10;;;22.30;99.90;;;;;;5053102;28;20491;-67
2022/11/02 07:02:26;;;;;;;25.40;6.82;;;23.30;99.90;;;;;;5053372;28;20044;-67
2022/11/02 07:05:31;;;;;;;18.20;6.25;;;22.90;99.90;;;;;;5052307;28;20044;-67
2022/11/02 07:08:35;;;;;;;14.18;5.82;;;19.60;99.90;;;;;;5053273;28;20047;-66
2022/11/02 07:11:39;;;;;;;16.05;6.80;;;20.40;99.90;;;;;;5052735;28;20044;-68
2022/11/02 07:14:42;;;;;;;16.90;7.20;;;20.50;99.90;;;;;;5052448;28;20487;-67
2022/11/02 07:17:47;;;;;;;16.63;6.25;;;20.50;99.90;;;;;;5051992;28;20047;-67
2022/11/02 07:20:51;;;;;;;10.60;5.82;;;22.20;99.90;;;;;;5052612;28;20044;-67
2022/11/02 07:23:55;;;;;;;13.73;4.82;;;23.00;99.90;;;;;;5042510;28;20040;-67
2022/11/02 07:26:59;;;;;;;9.77;4.43;;;23.60;99.90;;;;;;5034886;28;20044;-67
2022/11/02 07:30:04;;;;;;;10.30;4.45;;;24.90;98.90;;;;;;5033301;28;20488;-67
2022/11/02 07:33:08;;;;;;;8.80;4.18;;;25.50;96.80;;;;;;5032523;28;20040;-67
2022/11/02 07:36:12;;;;;;;9.52;4.82;;;25.80;96.30;;;;;;5032551;28;20072;-67
2022/11/02 07:39:17;;;;;;;6.43;4.68;;;26.40;95.60;;;;;;5031930;28;20044;-67
2022/11/02 07:42:21;;;;;;;8.65;4.75;;;26.30;94.90;;;;;;5049277;28;20526;-68
2022/11/02 07:45:30;;;;;;;6.70;4.70;;;26.40;95.00;;;;;;5030778;28;20040;-67
2022/11/02 07:48:34;;;;;;;8.23;4.72;;;26.80;94.40;;;;;;5032042;28;20052;-68
2022/11/02 07:51:38;;;;;;;9.52;4.63;;;26.80;94.30;;;;;;5031701;28;20040;-67
2022/11/02 07:54:42;;;;;;;7.60;4.30;;;27.30;94.50;;;;;;5035172;28;20048;-67
2022/11/02 07:58:01;;;;;;;7.93;5.18;;;27.10;94.30;;;;;;5050569;28;20044;-67
2022/11/02 08:01:05;;;;;;;9.18;4.88;;;25.30;94.90;;;;;;5047363;28;20037;-67
2022/11/02 08:04:08;;;;;;;7.65;4.78;;;24.50;96.30;;;;;;5031659;28;20048;-66
2022/11/02 08:07:12;;;;;;;7.05;4.47;;;25.20;95.70;;;;;;5044494;28;20044;-67
2022/11/02 08:10:16;;;;;;;9.00;4.47;;;26.50;94.70;;;;;;5040519;28;20389;-67
2022/11/02 08:13:24;;;;;;;7.57;5.07;;;26.60;94.40;;;;;;5037596;28;20044;-66
2022/11/02 08:16:29;;;;;;;8.52;4.85;;;25.80;94.70;;;;;;5051953;28;20048;-67
2022/11/02 08:19:32;;;;;;;7.00;4.22;;;25.20;95.50;;;;;;5035840;28;20872;-67
2022/11/02 08:22:37;;;;;;;8.85;3.80;;;26.70;95.00;;;;;;5031990;28;20056;-67
2022/11/02 08:25:44;;;;;;;5.40;3.50;;;28.10;93.20;;;;;;5043923;28;20036;-67
2022/11/02 08:28:48;;;;;;;8.93;4.03;;;29.20;92.80;;;;;;5031803;28;20052;-65
2022/11/02 08:31:52;;;;;;;6.80;4.10;;;30.50;91.50;;;;;;5044437;28;20061;-67
2022/11/02 08:34:56;;;;;;;7.70;3.80;;;30.60;90.80;;;;;;5049494;28;20546;-68
2022/11/02 08:38:00;;;;;;;6.07;4.18;;;29.80;90.20;;;;;;5051367;28;20044;-67
2022/11/02 08:41:05;;;;;;;9.90;4.15;;;29.50;90.80;;;;;;5039805;28;20505;-67
2022/11/02 08:44:08;;;;;;;8.85;3.65;;;27.00;91.60;;;;;;5043089;28;20052;-66
2022/11/02 08:47:14;;;;;;;8.85;3.78;;;25.60;93.00;;;;;;5039839;28;20392;-67
2022/11/02 08:50:19;;;;;;;7.35;3.92;;;25.70;92.80;;;;;;5048539;28;20051;-67
2022/11/02 08:53:23;;;;;;;7.25;3.60;;;25.10;92.40;;;;;;5048397;28;20048;-67
2022/11/02 08:56:27;;;;;;;9.80;4.07;;;26.60;92.50;;;;;;5037738;28;20044;-67
2022/11/02 08:59:31;;;;;;;9.68;4.07;;;28.60;90.30;;;;;;5042575;28;20491;-67
2022/11/02 09:02:35;;;;;;;6.97;3.67;;;28.60;91.40;;;;;;5050945;28;20048;-67
2022/11/02 09:05:44;;;;;;;7.97;4.15;;;27.80;91.50;;;;;;5049394;28;20044;-67
2022/11/02 09:08:48;;;;;;;5.07;4.10;;;27.40;91.80;;;;;;5048315;28;20048;-65
2022/11/02 09:11:52;;;;;;;4.88;3.75;;;28.80;90.90;;;;;;5039310;28;20525;-66
2022/11/02 09:14:56;;;;;;;9.45;4.10;;;30.00;90.60;;;;;;5034528;28;20052;-67
2022/11/02 09:18:00;;;;;;;5.32;4.03;;;30.30;88.20;;;;;;5048559;28;20044;-67
2022/11/02 09:21:04;;;;;;;5.78;3.50;;;32.30;87.70;;;;;;5052472;28;20043;-68
2022/11/02 09:24:08;;;;;;;6.00;3.20;;;33.30;85.10;;;;;;5040939;28;20040;-67
2022/11/02 09:27:13;;;;;;;6.28;3.40;;;33.20;83.70;;;;;;5034359;28;20052;-67
2022/11/02 09:30:17;;;;;;;5.85;3.25;;;34.10;83.40;;;;;;5043395;28;20064;-67
2022/11/02 09:33:21;;;;;;;6.05;3.33;;;33.90;82.40;;;;;;5053131;28;20052;-68
2022/11/02 09:36:25;;;;;;;5.50;3.70;;;35.20;81.40;;;;;;5034123;28;20048;-67
2022/11/02 09:39:29;;;;;;;5.93;3.33;;;36.00;79.60;;;;;;5035368;28;20044;-66
2022/11/02 09:42:53;;;;;;;7.82;3.45;;;37.00;78.30;;;;;;5046374;28;20487;-67
2022/11/02 09:46:03;;;;;;;5.57;3.08;;;38.40;76.10;;;;;;5049166;28;20049;-68
2022/11/02 09:49:13;;;;;;;6.63;2.97;;;40.20;72.10;;;;;;5034799;28;20500;-67
2022/11/02 09:52:37;;;;;;;5.40;3.07;;;40.10;70.10;;;;;;5038217;28;20043;-67
2022/11/02 09:55:53;;;;;;;5.28;3.25;;;39.80;69.20;;;;;;5034596;28;20049;-67
2022/11/02 09:59:10;;;;;;;5.35;3.00;;;38.80;69.50;;;;;;5040098;28;20044;-67
2022/11/02 10:02:45;;;;;;;6.47;2.83;;;38.70;69.40;;;;;;5042578;28;20388;-67
2022/11/02 10:06:01;;;;;;;6.20;3.08;;;38.70;68.30;;;;;;5052806;28;20392;-67
2022/11/02 10:09:12;;;;;;;4.68;3.25;;;36.30;69.50;;;;;;5034122;28;20040;-67
2022/11/02 10:12:43;;;;;;;4.25;2.47;;;36.90;70.10;;;;;;5034458;28;20045;-67
2022/11/02 10:15:48;;;;;;;;;;;37.00;69.90;;;;;;5050593;28;20068;-67
2022/11/02 10:18:53;;;;;;;9.88;2.80;;;36.30;69.90;;;;;;5034655;28;19916;-67
2022/11/02 10:21:58;;;;;;;18.58;3.20;;;36.70;69.70;;;;;;5033356;28;20049;-68
2022/11/02 10:25:06;;;;;;;22.27;3.60;;;37.20;69.70;;;;;;5043579;28;20048;-67
2022/11/02 10:28:15;;;;;;;5.50;2.97;;;38.30;69.40;;;;;;5053411;28;20507;-67
2022/11/02 10:31:28;;;;;;;6.78;3.00;;;34.90;68.60;;;;;;5052360;28;20056;-67
2022/11/02 10:34:33;;;;;;;7.85;3.08;;;33.60;72.30;;;;;;5046011;28;20064;-67
2022/11/02 10:37:46;;;;;;;6.55;3.53;;;32.00;74.20;;;;;;5052767;28;20119;-67
2022/11/02 10:41:02;;;;;;;9.57;3.70;;;31.40;75.40;;;;;;5049449;28;20048;-66
2022/11/02 10:44:25;;;;;;;6.63;2.92;;;32.90;74.00;;;;;;5034793;28;20041;-67
2022/11/02 10:47:38;;;;;;;5.70;3.40;;;35.00;72.00;;;;;;5034456;28;20508;-67
2022/11/02 10:50:45;;;;;;;7.32;3.00;;;34.00;71.20;;;;;;5033514;28;20044;-67
2022/11/02 10:53:51;;;;;;;5.90;3.03;;;33.60;73.10;;;;;;5039697;28;20056;-67
2022/11/02 10:56:57;;;;;;;6.95;2.85;;;34.40;71.70;;;;;;5045732;28;20494;-66
2022/11/02 11:00:26;;;;;;;9.65;2.75;;;36.50;71.30;;;;;;5046891;28;20060;-67
2022/11/02 11:03:30;;;;;;;5.03;3.20;;;38.70;69.20;;;;;;5047019;28;20047;-67
2022/11/02 11:06:40;;;;;;;5.40;2.80;;;35.60;70.20;;;;;;5051259;28;20044;-67
2022/11/02 11:09:56;;;;;;;6.28;2.60;;;34.60;71.50;;;;;;5032422;28;20100;-67
2022/11/02 11:13:02;;;;;;;5.22;3.15;;;34.40;72.70;;;;;;5035458;28;20039;-66
2022/11/02 11:16:06;;;;;;;5.88;3.42;;;33.80;71.90;;;;;;5047163;28;20052;-67
2022/11/02 11:19:22;;;;;;;5.75;3.35;;;32.60;73.10;;;;;;5034474;28;20044;-67
2022/11/02 11:22:35;;;;;;;7.35;3.38;;;32.50;73.80;;;;;;5045259;28;20507;-67
2022/11/02 11:25:40;;;;;;;9.85;4.13;;;31.50;74.40;;;;;;5043345;28;20028;-67
2022/11/02 11:28:55;;;;;;;6.80;3.13;;;33.10;73.40;;;;;;5032728;28;20048;-67
2022/11/02 11:32:01;;;;;;;9.00;4.00;;;32.90;72.70;;;;;;5050125;28;20048;-67
2022/11/02 11:35:14;;;;;;;7.70;3.25;;;33.40;73.30;;;;;;5049562;28;20051;-67
2022/11/02 11:38:24;;;;;;;7.82;3.47;;;35.40;71.70;;;;;;5038115;28;20219;-67
2022/11/02 11:41:30;;;;;;;6.55;3.58;;;35.40;71.00;;;;;;5050084;28;20411;-67
2022/11/02 11:44:35;;;;;;;4.95;2.75;;;36.00;71.40;;;;;;5046576;28;20028;-68
2022/11/02 11:47:41;;;;;;;9.35;3.13;;;35.00;71.40;;;;;;5046525;28;20048;-67
2022/11/02 11:50:46;;;;;;;7.13;3.13;;;36.00;69.70;;;;;;5032351;28;20045;-67
2022/11/02 11:54:32;;;;;;;6.18;2.90;;;37.30;69.00;;;;;;5048420;28;20419;-67
2022/11/02 11:57:36;;;;;;;5.57;3.10;;;38.00;67.30;;;;;;5026702;28;20040;-67
2022/11/02 12:00:41;;;;;;;9.50;3.58;;;36.60;68.30;;;;;;5031718;28;20049;-67
2022/11/02 12:03:56;;;;;;;8.25;3.45;;;35.20;70.10;;;;;;5050797;28;20048;-67
2022/11/02 12:07:11;;;;;;;4.85;3.00;;;36.50;69.40;;;;;;5050920;28;20048;-68
2022/11/02 12:10:33;;;;;;;5.38;2.90;;;35.10;67.60;;;;;;5032040;28;20048;-67
2022/11/02 12:14:08;;;;;;;5.15;2.80;;;32.50;68.40;;;;;;5034984;28;20044;-67
2022/11/02 12:17:14;;;;;;;5.00;2.70;;;31.30;73.00;;;;;;5034170;28;20032;-67
2022/11/02 12:20:44;;;;;;;5.90;2.40;;;33.80;71.10;;;;;;5031727;28;20044;-67
2022/11/02 12:24:15;;;;;;;6.10;2.58;;;35.30;69.30;;;;;;5030958;28;20053;-67
2022/11/02 12:27:30;;;;;;;4.32;2.28;;;34.00;67.30;;;;;;5030924;28;20480;-66
2022/11/02 12:30:50;;;;;;;4.43;2.08;;;34.40;67.30;;;;;;5031502;28;20044;-68
2022/11/02 12:33:59;;;;;;;5.45;2.55;;;33.90;67.30;;;;;;5046046;28;20122;-67
2022/11/02 12:37:04;;;;;;;7.30;2.15;;;35.00;67.20;;;;;;5045462;28;20384;-67
2022/11/02 12:40:29;;;;;;;4.20;2.00;;;33.00;67.50;;;;;;5051370;28;20048;-67
2022/11/02 12:43:45;;;;;;;4.03;2.30;;;33.00;69.00;;;;;;5036970;28;20048;-68
2022/11/02 12:47:44;;;;;;;3.30;2.22;;;31.00;68.30;;;;;;5034763;28;20052;-66
2022/11/02 12:51:03;;;;;;;5.90;2.38;;;28.30;71.80;;;;;;5040112;28;20044;-67
2022/11/02 12:54:10;;;;;;;11.18;2.20;;;28.50;72.50;;;;;;5046223;28;20055;-67
2022/11/02 12:57:18;;;;;;;5.38;2.10;;;30.50;69.00;;;;;;5044412;28;20064;-68
2022/11/02 13:00:23;;;;;;;9.15;1.92;;;31.60;68.00;;;;;;5048590;28;20040;-67
2022/11/02 13:03:51;;;;;;;6.50;2.33;;;33.00;67.80;;;;;;5047785;28;20033;-67
2022/11/02 13:07:10;;;;;;;2.67;1.70;;;33.80;65.70;;;;;;5051586;28;20060;-67
2022/11/02 13:10:19;;;;;;;5.30;2.22;;;33.10;65.80;;;;;;5053977;28;20032;-67
2022/11/02 13:13:46;;;;;;;4.22;1.95;;;31.70;67.30;;;;;;5040654;28;20032;-67
2022/11/02 13:17:10;;;;;;;5.10;2.10;;;30.30;69.50;;;;;;5048066;28;20032;-68
2022/11/02 13:20:32;;;;;;;3.65;2.30;;;30.30;69.70;;;;;;5051524;28;20036;-67
2022/11/02 13:23:42;;;;;;;5.82;2.05;;;30.10;69.90;;;;;;5048306;28;20052;-67
2022/11/02 13:26:49;;;;;;;5.75;2.30;;;29.10;70.80;;;;;;5050043;28;20490;-66
2022/11/02 13:29:57;;;;;;;5.57;2.13;;;28.30;72.20;;;;;;5045956;28;20040;-68
2022/11/02 13:33:03;;;;;;;5.40;2.08;;;28.20;72.50;;;;;;5046789;28;20036;-68
2022/11/02 13:36:09;;;;;;;7.47;2.17;;;28.00;72.20;;;;;;5050896;28;20051;-68
2022/11/02 13:39:28;;;;;;;4.35;2.42;;;27.90;73.20;;;;;;5043937;28;20049;-68
2022/11/02 13:43:06;;;;;;;6.50;2.78;;;28.00;73.10;;;;;;5034506;28;20048;-68
2022/11/02 13:46:52;;;;;;;6.07;2.60;;;28.00;74.90;;;;;;5051051;28;20048;-68
2022/11/02 13:49:59;;;;;;;8.00;2.83;;;27.90;77.50;;;;;;5047957;28;20044;-67
2022/11/02 13:53:07;;;;;;;6.22;3.08;;;27.70;79.30;;;;;;5046200;28;20068;-67
2022/11/02 13:56:21;;;;;;;6.65;2.70;;;27.40;80.90;;;;;;5047264;28;20036;-68
2022/11/02 13:59:36;;;;;;;5.75;2.88;;;27.10;81.30;;;;;;5045006;28;20066;-68
2022/11/02 14:02:42;;;;;;;7.50;2.80;;;26.90;82.00;;;;;;5045284;28;20035;-68
2022/11/02 14:06:10;;;;;;;7.13;2.83;;;26.70;82.40;;;;;;5045802;28;20036;-68
2022/11/02 14:09:29;;;;;;;4.82;3.10;;;26.50;83.90;;;;;;5045873;28;20039;-68
2022/11/02 14:12:49;;;;;;;8.48;3.20;;;26.50;84.10;;;;;;5045731;28;20036;-67
2022/11/02 14:15:53;;;;;;;6.65;2.70;;;26.40;84.30;;;;;;5048967;28;20071;-67
2022/11/02 14:19:50;;;;;;;6.10;3.20;;;26.30;84.80;;;;;;5047694;28;20044;-67
2022/11/02 14:23:10;;;;;;;8.98;3.10;;;26.40;85.50;;;;;;5046225;28;20056;-67
2022/11/02 14:26:31;;;;;;;8.10;3.40;;;26.30;86.00;;;;;;5046871;28;20047;-67
2022/11/02 14:29:41;;;;;;;8.85;3.30;;;26.00;87.30;;;;;;5051035;28;20400;-67
2022/11/02 14:32:59;;;;;;;8.32;3.33;;;25.50;88.00;;;;;;5037868;28;20049;-67
2022/11/02 14:36:23;;;;;;;8.38;3.15;;;25.10;89.80;;;;;;5044054;28;20056;-67
2022/11/02 14:39:46;;;;;;;12.70;4.13;;;24.60;90.40;;;;;;5029378;28;20526;-66
2022/11/02 14:43:07;;;;;;;8.38;3.20;;;24.30;90.90;;;;;;5045244;28;20072;-67
2022/11/02 14:46:39;;;;;;;8.40;3.35;;;24.00;91.60;;;;;;5046264;28;20511;-67
2022/11/02 14:49:55;;;;;;;9.27;3.05;;;23.80;91.80;;;;;;5046786;28;20037;-66
2022/11/02 14:53:07;;;;;;;8.00;3.22;;;23.60;92.20;;;;;;5035516;28;20506;-68
2022/11/02 14:56:12;;;;;;;9.43;3.50;;;23.50;92.20;;;;;;5033934;28;20044;-65
2022/11/02 14:59:28;;;;;;;11.82;3.50;;;23.40;92.30;;;;;;5049014;28;20051;-68
2022/11/02 15:02:37;;;;;;;13.15;3.45;;;23.30;92.70;;;;;;5046346;28;20036;-68
2022/11/02 15:05:42;;;;;;;20.30;3.70;;;23.30;92.60;;;;;;5043725;28;20044;-67
2022/11/02 15:09:00;;;;;;;27.00;4.25;;;23.30;92.80;;;;;;5039343;28;20039;-67
2022/11/02 15:12:28;;;;;;;11.90;3.72;;;23.20;92.80;;;;;;5047156;28;20063;-67
2022/11/02 15:15:34;;;;;;;8.50;3.92;;;23.20;92.80;;;;;;5045247;28;20036;-67
2022/11/02 15:18:39;;;;;;;12.35;3.72;;;23.10;93.00;;;;;;5046471;28;20052;-67
2022/11/02 15:21:43;;;;;;;11.77;3.80;;;23.00;93.20;;;;;;5046919;28;20044;-67
2022/11/02 15:24:49;;;;;;;27.50;4.30;;;22.90;93.40;;;;;;5049562;28;20399;-67
2022/11/02 15:28:08;;;;;;;11.70;4.05;;;22.90;93.70;;;;;;5048563;28;20542;-67
2022/11/02 15:31:22;;;;;;;14.25;3.95;;;22.90;93.30;;;;;;5049773;28;20056;-67
2022/11/02 15:34:41;;;;;;;9.40;3.53;;;22.80;94.00;;;;;;5043668;28;20392;-67
2022/11/02 15:37:45;;;;;;;14.88;5.40;;;22.60;94.20;;;;;;5049295;28;20502;-67
2022/11/02 15:41:20;;;;;;;27.02;6.65;;;22.30;94.40;;;;;;5046575;28;20428;-67
2022/11/02 15:44:56;;;;;;;19.42;6.28;;;22.10;94.90;;;;;;5045297;28;20036;-67
2022/11/02 15:48:21;;;;;;;25.77;9.25;;;22.10;95.20;;;;;;5027136;28;20108;-67
2022/11/02 15:51:28;;;;;;;14.80;6.50;;;21.80;95.40;;;;;;5047341;28;20506;-67
2022/11/02 15:55:02;;;;;;;18.83;5.10;;;21.50;95.80;;;;;;5046865;28;20055;-67
2022/11/02 15:58:48;;;;;;;11.15;3.42;;;21.20;96.80;;;;;;5048519;28;20044;-67
2022/11/02 16:02:20;;;;;;;8.95;3.40;;;20.90;96.90;;;;;;4978018;28;20051;-66
2022/11/02 16:05:28;;;;;;;21.40;3.65;;;20.40;97.60;;;;;;5006673;28;20785;-68
2022/11/02 16:08:36;;;;;;;27.42;4.90;;;20.20;98.00;;;;;;5046214;28;20380;-68
2022/11/02 16:11:40;;;;;;;9.50;3.55;;;19.90;98.10;;;;;;5049376;28;20119;-67
2022/11/02 16:14:57;;;;;;;12.25;3.60;;;19.60;98.30;;;;;;5045274;28;20039;-68
2022/11/02 16:18:01;;;;;;;10.27;4.28;;;17.60;98.10;;;;;;5048748;28;20522;-67
2022/11/02 16:21:09;;;;;;;15.88;5.22;;;19.20;98.80;;;;;;5044332;28;20044;-67
2022/11/02 16:24:14;;;;;;;10.63;5.15;;;19.20;98.90;;;;;;5050331;28;20040;-67
2022/11/02 16:27:18;;;;;;;12.15;5.00;;;19.20;98.80;;;;;;5047678;28;20052;-67
2022/11/02 16:30:22;;;;;;;13.60;3.90;;;19.10;98.50;;;;;;5042118;28;20383;-67
2022/11/02 16:33:33;;;;;;;14.18;3.50;;;19.10;98.40;;;;;;5048418;28;20040;-66